Spencer, North Carolina
Current Conditions -  °F | °C
As of 1:15 PM on Friday 21 Nov 2014 (Local Time) from KRUQ Reporting Station
Clear Clear  
Wind Chill: 45°   Ceiling: Unl
Heat Index: 49°   Visibility: 10mi
Dew Point: 13°   Wind: 8mph
Humidity: 23%   Direction: 360°N
Pressure: 30.4"   Gusts: NA
Location:  35.69°N, 80.43°W
Report Text: KRUQ 211815Z AUTO 36007KT 10SM CLR 09/M11 A3040 RMK AO2 T00941108
Loading
Personal Weather Stations






























Interactive Weather Map New forecast layout! Learn more

10-Day Weather Forecast

Advertisements
Track Severe Weather on mobile